Forside
METAR-TAF:

METAR-TAF

Lufthavne :

Dar es-Salaam, Tanzania

Breddekreds: 06-52S, længdekreds: 039-12E, højde: 55 m

Aktuelle vejr

Denne rapport blev lavet for 5 timer og 1 minutter siden, kl. 08:00 UTC
Vind 15 kt fra sydsydøst
Temperatur 29°C
Fugtighed 70%
Tryk 1018 hPa
Sigt 10 km eller mere
Brudte skyer i en højde af 1300 ft

METAR: HTDA 220800Z 15015KT 9999 BKN013 29/23 Q1018 NOSIG

Tid: 16:01 (13:01 UTC)

Vejrudsigter

Denne rapport blev lavet for 2 timer og 1 minutter siden, kl. 11:00 UTC
Foreløbig gælder fra 22 på 12 UTC til 23 på 18 UTC
Vind 15 kt fra sydøst
Sigt 10 km eller mere
Brudte skyer i en højde af 2200 ft
ændring
fra 22 på 17 UTC til 22 på 20 UTC
Vind 5 kt fra sydøst
Spredte skyer i en højde af 1200 ft
Fra 23 på 0609 UTC
Vind 10 kt fra sydsydvest
Brudte skyer i en højde af 1400 ft

TAF: HTDA 221100Z 2212/2318 13015KT 9999 BKN022 BECMG 2217/2220 14005KT SCT012 FM230609 20010KT BKN014

Vejrobservationer og prognoser fra mere end 4000 lufthavne (METAR og TAF).

De gule og røde prikker repræsenterer de meteorologiske stationer.

Flyt musen over at se navnet på stationen.

Så klik over at se vejr observationer og prognoser.

At skifte det kort: Klik på de grønne knapper med et sort kors for at zoome ind; på den grønne knap med en bindestreg for at zoome ud; eller på de grønne pile for tilstødende kort.


METAR-TAF: